Soap Lake, WA

3:55 PM PDT on April 19, 2015 (GMT -0700)
Adrian | | Change Station
CLOSE
Current Station
Personal Weather Station
Location: Soap Lake, WA
Elevation: 1201 ft
Nearby Weather Stations

Elev 1201 ft 47.39 °N, 119.38 °W | Updated 1 second ago

Clear
Clear
74.5 °F
Feels Like 76 °F
N
7.2
Wind Variable Wind from SSW
Gusts 7.4 mph

Today
High -- | Low -- °F
--% Chance of Precip.
Yesterday
High -- | Low -- °F
Precip. -- in
6:02 AM 7:52 PM
New Moon, 2% visible
Pressure 30.06 in
Visibility 10.0 miles
Clouds Clear
Heat Index 76 °F
Dew Point 30 °F
Humidity 19%
Rainfall 0.00 in
Snow Depth Not available.
UV 7 out of 12
Pollen 10.80 out of 12
Air Quality Not available.
Flu Activity Regional
METAR KEPH 192153Z AUTO 19007KT 130V220 10SM CLR 23/M03 A3006 RMK AO2 SLP177 T02281033

More Conditions Fewer Conditions

Pressure 30.06 in
Visibility 10.0 miles
Clouds Clear
Heat Index 76 °F
Dew Point 30 °F
Humidity 19%
Rainfall 0.00 in
Snow Depth Not available.
UV 7 out of 12
Pollen 10.80 out of 12
Air Quality Not available.
Flu Activity Regional
METAR KEPH 192153Z AUTO 19007KT 130V220 10SM CLR 23/M03 A3006 RMK AO2 SLP177 T02281033

More Conditions Fewer Conditions

10-Day Weather Forecast

Almanac

Astronomy

Apr. 19, 2015 Rise Set
Actual Time
Civil Twilight
Nautical Twilight
Astronomical Twilight
Moon
Length of Visible Light
Length of Day
Tomorrow will be .
, % of the Moon is Illuminated

Today's Extremes

State Highs State Lows

Community

WunderPhotos

Upload Photos

1,815,009 photos uploaded!

WunderBlogs® & News

Nearby

Air Quality

  Air Quality AQ Index Pollutant
Not available.

Snow Depth

Station Depth Elevation

Earthquake Activity

City Distance Mag. Time & Date
Minimum magnitude displayed is 2.5.

Coastal Water Temperatures

Place Temperature

Stations

Nearby Weather Stations

Station Location Temp. Windchill Dew Point Humidity Wind Precip. Elev Updated Type